sensor_id;sensor_type;location;lat;lon;timestamp;temperature;humidity
20732;DHT22;10527;52.124;5.196;2023-04-25T00:00:15;7.60;99.90
20732;DHT22;10527;52.124;5.196;2023-04-25T00:02:43;7.60;99.90
20732;DHT22;10527;52.124;5.196;2023-04-25T00:05:11;7.50;99.90
20732;DHT22;10527;52.124;5.196;2023-04-25T00:07:38;7.30;99.90
20732;DHT22;10527;52.124;5.196;2023-04-25T00:10:07;7.10;99.90
20732;DHT22;10527;52.124;5.196;2023-04-25T00:12:34;7.00;99.90
20732;DHT22;10527;52.124;5.196;2023-04-25T00:15:02;7.00;99.90
20732;DHT22;10527;52.124;5.196;2023-04-25T00:17:29;6.90;99.90
20732;DHT22;10527;52.124;5.196;2023-04-25T00:19:57;7.00;99.90
20732;DHT22;10527;52.124;5.196;2023-04-25T00:22:24;7.10;99.90
20732;DHT22;10527;52.124;5.196;2023-04-25T00:24:51;7.10;99.90
20732;DHT22;10527;52.124;5.196;2023-04-25T00:27:19;7.20;99.90
20732;DHT22;10527;52.124;5.196;2023-04-25T00:29:46;7.20;99.90
20732;DHT22;10527;52.124;5.196;2023-04-25T00:32:13;7.30;99.90
20732;DHT22;10527;52.124;5.196;2023-04-25T00:34:39;7.30;99.90
20732;DHT22;10527;52.124;5.196;2023-04-25T00:37:06;7.40;99.90
20732;DHT22;10527;52.124;5.196;2023-04-25T00:39:35;7.40;99.90
20732;DHT22;10527;52.124;5.196;2023-04-25T00:42:02;7.40;99.90
20732;DHT22;10527;52.124;5.196;2023-04-25T00:44:30;7.40;99.90
20732;DHT22;10527;52.124;5.196;2023-04-25T00:46:59;7.40;99.90
20732;DHT22;10527;52.124;5.196;2023-04-25T00:49:28;7.40;99.90
20732;DHT22;10527;52.124;5.196;2023-04-25T00:51:55;7.40;99.90
20732;DHT22;10527;52.124;5.196;2023-04-25T00:54:23;7.50;99.90
20732;DHT22;10527;52.124;5.196;2023-04-25T00:56:49;7.50;99.90
20732;DHT22;10527;52.124;5.196;2023-04-25T00:59:19;7.50;99.90
20732;DHT22;10527;52.124;5.196;2023-04-25T01:01:47;7.60;99.90
20732;DHT22;10527;52.124;5.196;2023-04-25T01:04:14;7.50;99.90
20732;DHT22;10527;52.124;5.196;2023-04-25T01:06:41;7.50;99.90
20732;DHT22;10527;52.124;5.196;2023-04-25T01:09:08;7.40;99.90
20732;DHT22;10527;52.124;5.196;2023-04-25T01:11:36;7.40;99.90
20732;DHT22;10527;52.124;5.196;2023-04-25T01:14:02;7.40;99.90
20732;DHT22;10527;52.124;5.196;2023-04-25T01:16:32;7.30;99.90
20732;DHT22;10527;52.124;5.196;2023-04-25T01:18:59;7.20;99.90
20732;DHT22;10527;52.124;5.196;2023-04-25T01:21:27;7.20;99.90
20732;DHT22;10527;52.124;5.196;2023-04-25T01:23:56;7.20;99.90
20732;DHT22;10527;52.124;5.196;2023-04-25T01:26:24;7.10;99.90
20732;DHT22;10527;52.124;5.196;2023-04-25T01:28:51;7.10;99.90
20732;DHT22;10527;52.124;5.196;2023-04-25T01:31:21;7.20;99.90
20732;DHT22;10527;52.124;5.196;2023-04-25T01:33:48;7.20;99.90
20732;DHT22;10527;52.124;5.196;2023-04-25T01:36:15;7.20;99.90
20732;DHT22;10527;52.124;5.196;2023-04-25T01:38:42;7.10;99.90
20732;DHT22;10527;52.124;5.196;2023-04-25T01:41:10;7.20;99.90
20732;DHT22;10527;52.124;5.196;2023-04-25T01:43:37;7.30;99.90
20732;DHT22;10527;52.124;5.196;2023-04-25T01:46:04;7.30;99.90
20732;DHT22;10527;52.124;5.196;2023-04-25T01:48:31;7.30;99.90
20732;DHT22;10527;52.124;5.196;2023-04-25T01:50:59;7.30;99.90
20732;DHT22;10527;52.124;5.196;2023-04-25T01:53:26;7.30;99.90
20732;DHT22;10527;52.124;5.196;2023-04-25T01:55:53;7.30;99.90
20732;DHT22;10527;52.124;5.196;2023-04-25T01:58:19;7.40;99.90
20732;DHT22;10527;52.124;5.196;2023-04-25T02:00:46;7.30;99.90
20732;DHT22;10527;52.124;5.196;2023-04-25T02:03:13;7.20;99.90
20732;DHT22;10527;52.124;5.196;2023-04-25T02:05:43;7.20;99.90
20732;DHT22;10527;52.124;5.196;2023-04-25T02:08:10;7.20;99.90
20732;DHT22;10527;52.124;5.196;2023-04-25T02:10:37;7.20;99.90
20732;DHT22;10527;52.124;5.196;2023-04-25T02:13:04;7.30;99.90
20732;DHT22;10527;52.124;5.196;2023-04-25T02:15:31;7.30;99.90
20732;DHT22;10527;52.124;5.196;2023-04-25T02:17:58;7.30;99.90
20732;DHT22;10527;52.124;5.196;2023-04-25T02:20:27;7.20;99.90
20732;DHT22;10527;52.124;5.196;2023-04-25T02:22:56;7.20;99.90
20732;DHT22;10527;52.124;5.196;2023-04-25T02:25:23;7.20;99.90
20732;DHT22;10527;52.124;5.196;2023-04-25T02:27:50;7.10;99.90
20732;DHT22;10527;52.124;5.196;2023-04-25T02:30:17;7.00;99.90
20732;DHT22;10527;52.124;5.196;2023-04-25T02:32:44;6.90;99.90
20732;DHT22;10527;52.124;5.196;2023-04-25T02:35:12;6.90;99.90
20732;DHT22;10527;52.124;5.196;2023-04-25T02:37:40;6.80;99.90
20732;DHT22;10527;52.124;5.196;2023-04-25T02:40:07;6.90;99.90
20732;DHT22;10527;52.124;5.196;2023-04-25T02:42:35;6.90;99.90
20732;DHT22;10527;52.124;5.196;2023-04-25T02:45:02;6.90;99.90
20732;DHT22;10527;52.124;5.196;2023-04-25T02:47:30;6.90;99.90
20732;DHT22;10527;52.124;5.196;2023-04-25T02:49:58;7.00;99.90
20732;DHT22;10527;52.124;5.196;2023-04-25T02:52:24;6.90;99.90
20732;DHT22;10527;52.124;5.196;2023-04-25T02:54:51;6.90;99.90
20732;DHT22;10527;52.124;5.196;2023-04-25T02:57:18;6.90;99.90
20732;DHT22;10527;52.124;5.196;2023-04-25T02:59:45;6.80;99.90
20732;DHT22;10527;52.124;5.196;2023-04-25T03:02:12;6.90;99.90
20732;DHT22;10527;52.124;5.196;2023-04-25T03:04:39;6.90;99.90
20732;DHT22;10527;52.124;5.196;2023-04-25T03:07:06;6.80;99.90
20732;DHT22;10527;52.124;5.196;2023-04-25T03:09:33;6.80;99.90
20732;DHT22;10527;52.124;5.196;2023-04-25T03:12:00;6.80;99.90
20732;DHT22;10527;52.124;5.196;2023-04-25T03:14:27;6.90;99.90
20732;DHT22;10527;52.124;5.196;2023-04-25T03:16:54;6.90;99.90
20732;DHT22;10527;52.124;5.196;2023-04-25T03:19:22;6.90;99.90
20732;DHT22;10527;52.124;5.196;2023-04-25T03:21:49;7.00;99.90
20732;DHT22;10527;52.124;5.196;2023-04-25T03:24:16;6.90;99.90
20732;DHT22;10527;52.124;5.196;2023-04-25T03:26:43;6.80;99.90
20732;DHT22;10527;52.124;5.196;2023-04-25T03:29:10;6.40;99.90
20732;DHT22;10527;52.124;5.196;2023-04-25T03:31:36;6.30;99.90
20732;DHT22;10527;52.124;5.196;2023-04-25T03:34:03;6.30;99.90
20732;DHT22;10527;52.124;5.196;2023-04-25T03:36:30;6.30;99.90
20732;DHT22;10527;52.124;5.196;2023-04-25T03:38:57;6.30;99.90
20732;DHT22;10527;52.124;5.196;2023-04-25T03:41:23;6.40;99.90
20732;DHT22;10527;52.124;5.196;2023-04-25T03:43:51;6.40;99.90
20732;DHT22;10527;52.124;5.196;2023-04-25T03:46:18;6.50;99.90
20732;DHT22;10527;52.124;5.196;2023-04-25T03:48:45;6.60;99.90
20732;DHT22;10527;52.124;5.196;2023-04-25T03:51:12;6.50;99.90
20732;DHT22;10527;52.124;5.196;2023-04-25T03:53:39;6.50;99.90
20732;DHT22;10527;52.124;5.196;2023-04-25T03:56:06;6.50;99.90
20732;DHT22;10527;52.124;5.196;2023-04-25T03:58:33;6.60;99.90
20732;DHT22;10527;52.124;5.196;2023-04-25T04:01:00;6.70;99.90
20732;DHT22;10527;52.124;5.196;2023-04-25T04:03:29;6.70;99.90
20732;DHT22;10527;52.124;5.196;2023-04-25T04:05:56;6.80;99.90
20732;DHT22;10527;52.124;5.196;2023-04-25T04:08:23;6.90;99.90
20732;DHT22;10527;52.124;5.196;2023-04-25T04:10:49;6.80;99.90
20732;DHT22;10527;52.124;5.196;2023-04-25T04:13:16;6.80;99.90
20732;DHT22;10527;52.124;5.196;2023-04-25T04:15:43;6.80;99.90
20732;DHT22;10527;52.124;5.196;2023-04-25T04:18:10;6.60;99.90
20732;DHT22;10527;52.124;5.196;2023-04-25T04:20:37;6.40;99.90
20732;DHT22;10527;52.124;5.196;2023-04-25T04:23:03;6.30;99.90
20732;DHT22;10527;52.124;5.196;2023-04-25T04:25:31;6.30;99.90
20732;DHT22;10527;52.124;5.196;2023-04-25T04:27:58;6.20;99.90
20732;DHT22;10527;52.124;5.196;2023-04-25T04:30:25;6.30;99.90
20732;DHT22;10527;52.124;5.196;2023-04-25T04:32:52;6.30;99.90
20732;DHT22;10527;52.124;5.196;2023-04-25T04:35:19;6.30;99.90
20732;DHT22;10527;52.124;5.196;2023-04-25T04:37:45;6.30;99.90
20732;DHT22;10527;52.124;5.196;2023-04-25T04:40:14;6.40;99.90
20732;DHT22;10527;52.124;5.196;2023-04-25T04:42:44;6.40;99.90
20732;DHT22;10527;52.124;5.196;2023-04-25T04:45:14;6.40;99.90
20732;DHT22;10527;52.124;5.196;2023-04-25T04:47:42;6.50;99.90
20732;DHT22;10527;52.124;5.196;2023-04-25T04:50:10;6.50;99.90
20732;DHT22;10527;52.124;5.196;2023-04-25T04:52:39;6.50;99.90
20732;DHT22;10527;52.124;5.196;2023-04-25T04:55:06;6.50;99.90
20732;DHT22;10527;52.124;5.196;2023-04-25T04:57:34;6.50;99.90
20732;DHT22;10527;52.124;5.196;2023-04-25T05:00:02;6.40;99.90
20732;DHT22;10527;52.124;5.196;2023-04-25T05:02:33;6.40;99.90
20732;DHT22;10527;52.124;5.196;2023-04-25T05:05:02;6.40;99.90
20732;DHT22;10527;52.124;5.196;2023-04-25T05:07:29;6.30;99.90
20732;DHT22;10527;52.124;5.196;2023-04-25T05:09:56;6.40;99.90
20732;DHT22;10527;52.124;5.196;2023-04-25T05:12:22;6.40;99.90
20732;DHT22;10527;52.124;5.196;2023-04-25T05:14:49;6.40;99.90
20732;DHT22;10527;52.124;5.196;2023-04-25T05:17:16;6.40;99.90
20732;DHT22;10527;52.124;5.196;2023-04-25T05:19:43;6.50;99.90
20732;DHT22;10527;52.124;5.196;2023-04-25T05:22:09;6.50;99.90
20732;DHT22;10527;52.124;5.196;2023-04-25T05:24:37;6.50;99.90
20732;DHT22;10527;52.124;5.196;2023-04-25T05:27:04;6.30;99.90
20732;DHT22;10527;52.124;5.196;2023-04-25T05:29:32;6.30;99.90
20732;DHT22;10527;52.124;5.196;2023-04-25T05:31:58;6.40;99.90
20732;DHT22;10527;52.124;5.196;2023-04-25T05:34:25;6.40;99.90
20732;DHT22;10527;52.124;5.196;2023-04-25T05:36:52;6.40;99.90
20732;DHT22;10527;52.124;5.196;2023-04-25T05:39:19;6.40;99.90
20732;DHT22;10527;52.124;5.196;2023-04-25T05:41:46;6.40;99.90
20732;DHT22;10527;52.124;5.196;2023-04-25T05:44:13;6.50;99.90
20732;DHT22;10527;52.124;5.196;2023-04-25T05:46:39;6.60;99.90
20732;DHT22;10527;52.124;5.196;2023-04-25T05:49:06;6.50;99.90
20732;DHT22;10527;52.124;5.196;2023-04-25T05:51:33;6.60;99.90
20732;DHT22;10527;52.124;5.196;2023-04-25T05:54:00;6.70;99.90
20732;DHT22;10527;52.124;5.196;2023-04-25T05:56:26;6.70;99.90
20732;DHT22;10527;52.124;5.196;2023-04-25T05:58:53;6.80;99.90
20732;DHT22;10527;52.124;5.196;2023-04-25T06:01:21;6.90;99.90
20732;DHT22;10527;52.124;5.196;2023-04-25T06:03:49;6.90;99.90
20732;DHT22;10527;52.124;5.196;2023-04-25T06:06:18;6.90;99.90
20732;DHT22;10527;52.124;5.196;2023-04-25T06:08:45;7.00;99.90
20732;DHT22;10527;52.124;5.196;2023-04-25T06:11:12;7.00;99.90
20732;DHT22;10527;52.124;5.196;2023-04-25T06:13:39;7.10;99.90
20732;DHT22;10527;52.124;5.196;2023-04-25T06:16:06;7.00;99.90
20732;DHT22;10527;52.124;5.196;2023-04-25T06:18:34;7.10;99.90
20732;DHT22;10527;52.124;5.196;2023-04-25T06:21:01;7.10;99.90
20732;DHT22;10527;52.124;5.196;2023-04-25T06:23:27;7.10;99.90
20732;DHT22;10527;52.124;5.196;2023-04-25T06:25:54;7.00;99.90
20732;DHT22;10527;52.124;5.196;2023-04-25T06:28:21;7.10;99.90
20732;DHT22;10527;52.124;5.196;2023-04-25T06:30:50;7.10;99.90
20732;DHT22;10527;52.124;5.196;2023-04-25T06:33:17;7.10;99.90
20732;DHT22;10527;52.124;5.196;2023-04-25T06:35:44;7.00;99.90
20732;DHT22;10527;52.124;5.196;2023-04-25T06:38:11;7.10;99.90
20732;DHT22;10527;52.124;5.196;2023-04-25T06:40:37;7.00;99.90
20732;DHT22;10527;52.124;5.196;2023-04-25T06:43:04;7.00;99.90
20732;DHT22;10527;52.124;5.196;2023-04-25T06:45:31;7.10;99.90
20732;DHT22;10527;52.124;5.196;2023-04-25T06:47:58;7.10;99.90
20732;DHT22;10527;52.124;5.196;2023-04-25T06:50:25;7.10;99.90
20732;DHT22;10527;52.124;5.196;2023-04-25T06:52:52;7.00;99.90
20732;DHT22;10527;52.124;5.196;2023-04-25T06:55:18;7.00;99.90
20732;DHT22;10527;52.124;5.196;2023-04-25T06:57:46;7.10;99.90
20732;DHT22;10527;52.124;5.196;2023-04-25T07:00:13;7.10;99.90
20732;DHT22;10527;52.124;5.196;2023-04-25T07:02:40;7.20;99.90
20732;DHT22;10527;52.124;5.196;2023-04-25T07:05:09;7.20;99.90
20732;DHT22;10527;52.124;5.196;2023-04-25T07:07:36;7.30;99.90
20732;DHT22;10527;52.124;5.196;2023-04-25T07:10:03;7.30;99.90
20732;DHT22;10527;52.124;5.196;2023-04-25T07:12:30;7.50;99.90
20732;DHT22;10527;52.124;5.196;2023-04-25T07:14:57;7.60;99.90
20732;DHT22;10527;52.124;5.196;2023-04-25T07:17:23;7.70;99.90
20732;DHT22;10527;52.124;5.196;2023-04-25T07:19:50;7.70;99.90
20732;DHT22;10527;52.124;5.196;2023-04-25T07:22:17;7.90;99.90
20732;DHT22;10527;52.124;5.196;2023-04-25T07:24:44;8.00;99.90
20732;DHT22;10527;52.124;5.196;2023-04-25T07:27:15;8.10;99.90
20732;DHT22;10527;52.124;5.196;2023-04-25T07:29:41;8.20;99.90
20732;DHT22;10527;52.124;5.196;2023-04-25T07:32:08;8.00;99.90
20732;DHT22;10527;52.124;5.196;2023-04-25T07:34:36;7.90;99.90
20732;DHT22;10527;52.124;5.196;2023-04-25T07:37:05;7.80;99.90
20732;DHT22;10527;52.124;5.196;2023-04-25T07:39:32;7.80;99.90
20732;DHT22;10527;52.124;5.196;2023-04-25T07:41:59;7.90;99.90
20732;DHT22;10527;52.124;5.196;2023-04-25T07:44:27;7.80;99.90
20732;DHT22;10527;52.124;5.196;2023-04-25T07:46:54;7.80;99.90
20732;DHT22;10527;52.124;5.196;2023-04-25T07:49:20;8.10;99.90
20732;DHT22;10527;52.124;5.196;2023-04-25T07:51:47;8.00;99.90
20732;DHT22;10527;52.124;5.196;2023-04-25T07:54:14;8.20;99.90
20732;DHT22;10527;52.124;5.196;2023-04-25T07:56:44;8.00;99.90
20732;DHT22;10527;52.124;5.196;2023-04-25T07:59:18;8.00;99.90
20732;DHT22;10527;52.124;5.196;2023-04-25T08:01:46;8.00;99.90
20732;DHT22;10527;52.124;5.196;2023-04-25T08:04:13;7.90;99.90
20732;DHT22;10527;52.124;5.196;2023-04-25T08:06:41;7.90;99.90
20732;DHT22;10527;52.124;5.196;2023-04-25T08:09:09;8.00;99.90
20732;DHT22;10527;52.124;5.196;2023-04-25T08:11:36;8.20;99.90
20732;DHT22;10527;52.124;5.196;2023-04-25T08:14:03;8.60;99.90
20732;DHT22;10527;52.124;5.196;2023-04-25T08:16:32;8.80;99.90
20732;DHT22;10527;52.124;5.196;2023-04-25T08:18:59;8.80;99.90
20732;DHT22;10527;52.124;5.196;2023-04-25T08:21:27;9.00;99.90
20732;DHT22;10527;52.124;5.196;2023-04-25T08:23:54;8.90;99.90
20732;DHT22;10527;52.124;5.196;2023-04-25T08:26:20;8.90;99.90
20732;DHT22;10527;52.124;5.196;2023-04-25T08:28:47;8.80;99.90
20732;DHT22;10527;52.124;5.196;2023-04-25T08:31:17;8.50;99.90
20732;DHT22;10527;52.124;5.196;2023-04-25T08:33:44;8.20;99.90
20732;DHT22;10527;52.124;5.196;2023-04-25T08:36:11;8.00;99.90
20732;DHT22;10527;52.124;5.196;2023-04-25T08:38:40;7.80;99.90
20732;DHT22;10527;52.124;5.196;2023-04-25T08:41:07;7.90;99.90
20732;DHT22;10527;52.124;5.196;2023-04-25T08:43:34;8.00;99.90
20732;DHT22;10527;52.124;5.196;2023-04-25T08:46:01;7.90;99.90
20732;DHT22;10527;52.124;5.196;2023-04-25T08:48:32;7.90;99.90
20732;DHT22;10527;52.124;5.196;2023-04-25T08:51:02;8.10;99.90
20732;DHT22;10527;52.124;5.196;2023-04-25T08:53:32;8.20;99.90
20732;DHT22;10527;52.124;5.196;2023-04-25T08:56:02;8.40;99.90
20732;DHT22;10527;52.124;5.196;2023-04-25T08:58:29;8.80;99.90
20732;DHT22;10527;52.124;5.196;2023-04-25T09:00:56;9.10;99.90
20732;DHT22;10527;52.124;5.196;2023-04-25T09:03:23;9.20;99.90
20732;DHT22;10527;52.124;5.196;2023-04-25T09:05:51;9.30;99.90
20732;DHT22;10527;52.124;5.196;2023-04-25T09:08:19;9.60;99.90
20732;DHT22;10527;52.124;5.196;2023-04-25T09:10:45;9.70;99.90
20732;DHT22;10527;52.124;5.196;2023-04-25T09:13:20;10.20;99.90
20732;DHT22;10527;52.124;5.196;2023-04-25T09:15:54;10.10;99.90
20732;DHT22;10527;52.124;5.196;2023-04-25T09:18:32;10.00;99.90
20732;DHT22;10527;52.124;5.196;2023-04-25T09:21:11;10.10;99.90
20732;DHT22;10527;52.124;5.196;2023-04-25T09:23:45;10.00;99.90
20732;DHT22;10527;52.124;5.196;2023-04-25T09:26:15;10.30;99.90
20732;DHT22;10527;52.124;5.196;2023-04-25T09:28:45;10.30;99.90
20732;DHT22;10527;52.124;5.196;2023-04-25T09:31:23;10.30;99.90
20732;DHT22;10527;52.124;5.196;2023-04-25T09:33:59;10.10;99.90
20732;DHT22;10527;52.124;5.196;2023-04-25T09:36:29;9.80;99.90
20732;DHT22;10527;52.124;5.196;2023-04-25T09:38:59;9.70;99.90
20732;DHT22;10527;52.124;5.196;2023-04-25T09:41:27;9.50;99.90
20732;DHT22;10527;52.124;5.196;2023-04-25T09:43:57;9.20;99.90
20732;DHT22;10527;52.124;5.196;2023-04-25T09:46:35;9.30;99.90
20732;DHT22;10527;52.124;5.196;2023-04-25T09:49:08;9.30;99.90
20732;DHT22;10527;52.124;5.196;2023-04-25T09:51:35;9.50;99.90
20732;DHT22;10527;52.124;5.196;2023-04-25T09:54:01;9.60;99.90
20732;DHT22;10527;52.124;5.196;2023-04-25T09:56:31;9.30;99.90
20732;DHT22;10527;52.124;5.196;2023-04-25T09:59:04;9.40;99.90
20732;DHT22;10527;52.124;5.196;2023-04-25T10:01:32;9.50;99.90
20732;DHT22;10527;52.124;5.196;2023-04-25T10:04:01;9.30;99.90
20732;DHT22;10527;52.124;5.196;2023-04-25T10:06:34;9.40;99.90
20732;DHT22;10527;52.124;5.196;2023-04-25T10:09:02;9.60;99.90
20732;DHT22;10527;52.124;5.196;2023-04-25T10:11:30;9.60;99.90
20732;DHT22;10527;52.124;5.196;2023-04-25T10:14:00;9.60;99.90
20732;DHT22;10527;52.124;5.196;2023-04-25T10:16:28;9.40;99.90
20732;DHT22;10527;52.124;5.196;2023-04-25T10:18:55;9.60;99.90
20732;DHT22;10527;52.124;5.196;2023-04-25T10:21:25;9.70;99.90
20732;DHT22;10527;52.124;5.196;2023-04-25T10:23:54;9.80;99.90
20732;DHT22;10527;52.124;5.196;2023-04-25T10:26:22;9.90;99.90
20732;DHT22;10527;52.124;5.196;2023-04-25T10:31:23;10.30;99.90
20732;DHT22;10527;52.124;5.196;2023-04-25T10:33:50;10.50;99.90
20732;DHT22;10527;52.124;5.196;2023-04-25T10:36:19;10.40;99.90
20732;DHT22;10527;52.124;5.196;2023-04-25T10:38:50;10.00;99.90
20732;DHT22;10527;52.124;5.196;2023-04-25T10:41:19;10.10;99.90
20732;DHT22;10527;52.124;5.196;2023-04-25T10:43:47;10.20;99.90
20732;DHT22;10527;52.124;5.196;2023-04-25T10:46:24;10.20;99.90
20732;DHT22;10527;52.124;5.196;2023-04-25T10:49:02;10.00;99.90
20732;DHT22;10527;52.124;5.196;2023-04-25T10:51:34;10.20;99.90
20732;DHT22;10527;52.124;5.196;2023-04-25T10:54:24;10.30;99.90
20732;DHT22;10527;52.124;5.196;2023-04-25T10:56:52;10.80;99.90
20732;DHT22;10527;52.124;5.196;2023-04-25T10:59:19;11.00;99.90
20732;DHT22;10527;52.124;5.196;2023-04-25T11:01:52;10.80;99.90
20732;DHT22;10527;52.124;5.196;2023-04-25T11:09:35;9.80;99.90
20732;DHT22;10527;52.124;5.196;2023-04-25T11:12:08;9.30;99.90
20732;DHT22;10527;52.124;5.196;2023-04-25T11:14:59;9.00;99.90
20732;DHT22;10527;52.124;5.196;2023-04-25T11:17:28;9.00;99.90
20732;DHT22;10527;52.124;5.196;2023-04-25T11:19:55;8.90;99.90
20732;DHT22;10527;52.124;5.196;2023-04-25T11:22:23;8.90;99.90
20732;DHT22;10527;52.124;5.196;2023-04-25T11:24:50;9.00;99.90
20732;DHT22;10527;52.124;5.196;2023-04-25T11:27:17;9.30;99.90
20732;DHT22;10527;52.124;5.196;2023-04-25T11:29:44;9.40;99.90
20732;DHT22;10527;52.124;5.196;2023-04-25T11:32:17;9.80;99.90
20732;DHT22;10527;52.124;5.196;2023-04-25T11:34:47;9.70;99.90
20732;DHT22;10527;52.124;5.196;2023-04-25T11:37:14;10.00;99.90
20732;DHT22;10527;52.124;5.196;2023-04-25T11:39:45;10.00;99.90
20732;DHT22;10527;52.124;5.196;2023-04-25T11:42:15;10.10;99.90
20732;DHT22;10527;52.124;5.196;2023-04-25T11:44:42;10.30;99.90
20732;DHT22;10527;52.124;5.196;2023-04-25T11:47:09;10.80;99.90
20732;DHT22;10527;52.124;5.196;2023-04-25T11:49:36;10.40;99.90
20732;DHT22;10527;52.124;5.196;2023-04-25T11:52:03;9.50;99.90
20732;DHT22;10527;52.124;5.196;2023-04-25T11:54:37;9.20;99.90
20732;DHT22;10527;52.124;5.196;2023-04-25T11:57:04;9.20;99.90
20732;DHT22;10527;52.124;5.196;2023-04-25T11:59:31;8.80;99.90
20732;DHT22;10527;52.124;5.196;2023-04-25T12:01:58;8.70;99.90
20732;DHT22;10527;52.124;5.196;2023-04-25T12:04:25;8.50;99.90
20732;DHT22;10527;52.124;5.196;2023-04-25T12:06:54;8.50;99.90
20732;DHT22;10527;52.124;5.196;2023-04-25T12:09:32;8.50;99.90
20732;DHT22;10527;52.124;5.196;2023-04-25T12:12:01;8.50;99.90
20732;DHT22;10527;52.124;5.196;2023-04-25T12:14:34;8.60;99.90
20732;DHT22;10527;52.124;5.196;2023-04-25T12:17:04;8.70;99.90
20732;DHT22;10527;52.124;5.196;2023-04-25T12:19:36;8.90;99.90
20732;DHT22;10527;52.124;5.196;2023-04-25T12:22:22;8.90;99.90
20732;DHT22;10527;52.124;5.196;2023-04-25T12:24:50;8.90;99.90
20732;DHT22;10527;52.124;5.196;2023-04-25T12:27:19;8.90;99.90
20732;DHT22;10527;52.124;5.196;2023-04-25T12:30:12;9.00;99.90
20732;DHT22;10527;52.124;5.196;2023-04-25T12:32:39;9.40;99.90
20732;DHT22;10527;52.124;5.196;2023-04-25T12:35:07;9.90;99.90
20732;DHT22;10527;52.124;5.196;2023-04-25T12:37:36;10.30;99.90
20732;DHT22;10527;52.124;5.196;2023-04-25T12:40:04;10.40;99.90
20732;DHT22;10527;52.124;5.196;2023-04-25T12:42:33;10.30;99.90
20732;DHT22;10527;52.124;5.196;2023-04-25T12:45:01;10.20;99.90
20732;DHT22;10527;52.124;5.196;2023-04-25T12:47:27;10.60;99.90
20732;DHT22;10527;52.124;5.196;2023-04-25T12:49:54;11.00;99.90
20732;DHT22;10527;52.124;5.196;2023-04-25T12:52:21;11.10;99.90
20732;DHT22;10527;52.124;5.196;2023-04-25T12:54:48;10.70;99.90
20732;DHT22;10527;52.124;5.196;2023-04-25T12:57:14;10.90;99.90
20732;DHT22;10527;52.124;5.196;2023-04-25T12:59:42;10.60;99.90
20732;DHT22;10527;52.124;5.196;2023-04-25T13:02:08;10.20;99.90
20732;DHT22;10527;52.124;5.196;2023-04-25T13:04:35;10.20;99.90
20732;DHT22;10527;52.124;5.196;2023-04-25T13:07:03;10.40;99.90
20732;DHT22;10527;52.124;5.196;2023-04-25T13:09:30;10.30;99.90
20732;DHT22;10527;52.124;5.196;2023-04-25T13:11:56;10.70;99.90
20732;DHT22;10527;52.124;5.196;2023-04-25T13:14:26;11.00;99.90
20732;DHT22;10527;52.124;5.196;2023-04-25T13:16:52;11.00;99.90
20732;DHT22;10527;52.124;5.196;2023-04-25T13:19:20;10.90;99.90
20732;DHT22;10527;52.124;5.196;2023-04-25T13:21:47;11.10;99.90
20732;DHT22;10527;52.124;5.196;2023-04-25T13:24:14;11.30;99.90
20732;DHT22;10527;52.124;5.196;2023-04-25T13:26:42;11.40;99.90
20732;DHT22;10527;52.124;5.196;2023-04-25T13:29:08;11.40;99.90
20732;DHT22;10527;52.124;5.196;2023-04-25T13:31:35;11.60;99.90
20732;DHT22;10527;52.124;5.196;2023-04-25T13:34:02;11.60;99.90
20732;DHT22;10527;52.124;5.196;2023-04-25T13:36:30;11.70;99.90
20732;DHT22;10527;52.124;5.196;2023-04-25T13:38:58;11.50;99.90
20732;DHT22;10527;52.124;5.196;2023-04-25T13:41:25;11.30;99.90
20732;DHT22;10527;52.124;5.196;2023-04-25T13:43:52;11.40;99.90
20732;DHT22;10527;52.124;5.196;2023-04-25T13:46:19;11.40;99.90
20732;DHT22;10527;52.124;5.196;2023-04-25T13:49:06;11.80;99.90
20732;DHT22;10527;52.124;5.196;2023-04-25T13:51:39;11.90;99.90
20732;DHT22;10527;52.124;5.196;2023-04-25T13:54:07;11.70;99.90
20732;DHT22;10527;52.124;5.196;2023-04-25T13:56:34;12.00;99.90
20732;DHT22;10527;52.124;5.196;2023-04-25T13:59:01;11.80;99.90
20732;DHT22;10527;52.124;5.196;2023-04-25T14:01:27;11.90;99.90
20732;DHT22;10527;52.124;5.196;2023-04-25T14:03:58;12.00;99.90
20732;DHT22;10527;52.124;5.196;2023-04-25T14:06:25;11.70;99.90
20732;DHT22;10527;52.124;5.196;2023-04-25T14:08:53;11.80;99.90
20732;DHT22;10527;52.124;5.196;2023-04-25T14:11:20;11.80;99.90
20732;DHT22;10527;52.124;5.196;2023-04-25T14:13:47;11.40;99.90
20732;DHT22;10527;52.124;5.196;2023-04-25T14:16:16;10.80;99.90
20732;DHT22;10527;52.124;5.196;2023-04-25T14:18:43;10.60;99.90
20732;DHT22;10527;52.124;5.196;2023-04-25T14:21:10;10.60;99.90
20732;DHT22;10527;52.124;5.196;2023-04-25T14:23:37;10.40;99.90
20732;DHT22;10527;52.124;5.196;2023-04-25T14:26:04;10.20;99.90
20732;DHT22;10527;52.124;5.196;2023-04-25T14:28:31;10.10;99.90
20732;DHT22;10527;52.124;5.196;2023-04-25T14:30:58;10.10;99.90
20732;DHT22;10527;52.124;5.196;2023-04-25T14:33:25;10.10;99.90
20732;DHT22;10527;52.124;5.196;2023-04-25T14:35:52;10.50;99.90
20732;DHT22;10527;52.124;5.196;2023-04-25T14:38:19;10.60;99.90
20732;DHT22;10527;52.124;5.196;2023-04-25T14:40:52;10.70;99.90
20732;DHT22;10527;52.124;5.196;2023-04-25T14:43:20;10.80;99.90
20732;DHT22;10527;52.124;5.196;2023-04-25T14:45:47;11.00;99.90
20732;DHT22;10527;52.124;5.196;2023-04-25T14:48:14;11.20;99.90
20732;DHT22;10527;52.124;5.196;2023-04-25T14:50:41;11.30;99.90
20732;DHT22;10527;52.124;5.196;2023-04-25T14:53:08;11.10;99.90
20732;DHT22;10527;52.124;5.196;2023-04-25T14:55:36;11.10;99.90
20732;DHT22;10527;52.124;5.196;2023-04-25T14:58:03;11.50;99.90
20732;DHT22;10527;52.124;5.196;2023-04-25T15:00:29;11.40;99.90
20732;DHT22;10527;52.124;5.196;2023-04-25T15:02:58;11.50;99.90
20732;DHT22;10527;52.124;5.196;2023-04-25T15:05:25;11.30;99.90
20732;DHT22;10527;52.124;5.196;2023-04-25T15:07:52;11.40;99.90
20732;DHT22;10527;52.124;5.196;2023-04-25T15:10:22;11.30;99.90
20732;DHT22;10527;52.124;5.196;2023-04-25T15:12:49;11.00;99.90
20732;DHT22;10527;52.124;5.196;2023-04-25T15:15:16;10.70;99.90
20732;DHT22;10527;52.124;5.196;2023-04-25T15:17:53;10.60;99.90
20732;DHT22;10527;52.124;5.196;2023-04-25T15:20:25;10.40;99.90
20732;DHT22;10527;52.124;5.196;2023-04-25T15:22:55;10.60;99.90
20732;DHT22;10527;52.124;5.196;2023-04-25T15:25:24;10.90;99.90
20732;DHT22;10527;52.124;5.196;2023-04-25T15:27:51;11.10;99.90
20732;DHT22;10527;52.124;5.196;2023-04-25T15:30:20;11.00;99.90
20732;DHT22;10527;52.124;5.196;2023-04-25T15:32:48;10.80;99.90
20732;DHT22;10527;52.124;5.196;2023-04-25T15:35:15;10.60;99.90
20732;DHT22;10527;52.124;5.196;2023-04-25T15:37:42;11.10;99.90
20732;DHT22;10527;52.124;5.196;2023-04-25T15:40:11;11.20;99.90
20732;DHT22;10527;52.124;5.196;2023-04-25T15:42:46;11.00;99.90
20732;DHT22;10527;52.124;5.196;2023-04-25T15:45:14;10.80;99.90
20732;DHT22;10527;52.124;5.196;2023-04-25T15:47:44;10.40;99.90
20732;DHT22;10527;52.124;5.196;2023-04-25T15:50:12;10.40;99.90
20732;DHT22;10527;52.124;5.196;2023-04-25T15:52:41;10.30;99.90
20732;DHT22;10527;52.124;5.196;2023-04-25T15:55:09;10.30;99.90